sensor_id;sensor_type;location;lat;lon;timestamp;temperature;humidity
2603;DHT22;1311;47.966;7.958;2022-07-21T00:02:01;21.40;99.90
2603;DHT22;1311;47.966;7.958;2022-07-21T00:04:28;21.30;99.90
2603;DHT22;1311;47.966;7.958;2022-07-21T00:06:54;21.30;99.90
2603;DHT22;1311;47.966;7.958;2022-07-21T00:09:22;21.40;99.90
2603;DHT22;1311;47.966;7.958;2022-07-21T00:11:49;21.30;99.90
2603;DHT22;1311;47.966;7.958;2022-07-21T00:14:16;21.40;99.90
2603;DHT22;1311;47.966;7.958;2022-07-21T00:16:44;21.40;99.90
2603;DHT22;1311;47.966;7.958;2022-07-21T00:19:11;21.30;99.90
2603;DHT22;1311;47.966;7.958;2022-07-21T00:21:37;21.30;99.90
2603;DHT22;1311;47.966;7.958;2022-07-21T00:24:04;21.20;99.90
2603;DHT22;1311;47.966;7.958;2022-07-21T00:26:32;21.30;99.90
2603;DHT22;1311;47.966;7.958;2022-07-21T00:28:59;21.20;99.90
2603;DHT22;1311;47.966;7.958;2022-07-21T00:31:26;21.30;99.90
2603;DHT22;1311;47.966;7.958;2022-07-21T00:33:53;21.30;99.90
2603;DHT22;1311;47.966;7.958;2022-07-21T00:36:20;21.10;99.90
2603;DHT22;1311;47.966;7.958;2022-07-21T00:38:47;21.30;99.90
2603;DHT22;1311;47.966;7.958;2022-07-21T00:41:14;21.20;99.90
2603;DHT22;1311;47.966;7.958;2022-07-21T00:43:43;21.20;99.90
2603;DHT22;1311;47.966;7.958;2022-07-21T00:46:10;21.00;99.90
2603;DHT22;1311;47.966;7.958;2022-07-21T00:48:37;21.20;99.90
2603;DHT22;1311;47.966;7.958;2022-07-21T00:51:04;21.10;99.90
2603;DHT22;1311;47.966;7.958;2022-07-21T00:53:31;21.00;99.90
2603;DHT22;1311;47.966;7.958;2022-07-21T00:55:58;21.10;99.90
2603;DHT22;1311;47.966;7.958;2022-07-21T00:58:25;21.10;99.90
2603;DHT22;1311;47.966;7.958;2022-07-21T01:00:53;21.00;99.90
2603;DHT22;1311;47.966;7.958;2022-07-21T01:03:20;20.90;99.90
2603;DHT22;1311;47.966;7.958;2022-07-21T01:05:47;21.00;99.90
2603;DHT22;1311;47.966;7.958;2022-07-21T01:08:14;21.10;99.90
2603;DHT22;1311;47.966;7.958;2022-07-21T01:10:41;21.10;99.90
2603;DHT22;1311;47.966;7.958;2022-07-21T01:13:08;21.00;99.90
2603;DHT22;1311;47.966;7.958;2022-07-21T01:15:35;21.10;99.90
2603;DHT22;1311;47.966;7.958;2022-07-21T01:18:03;21.10;99.90
2603;DHT22;1311;47.966;7.958;2022-07-21T01:20:33;21.10;99.90
2603;DHT22;1311;47.966;7.958;2022-07-21T01:23:03;21.00;99.90
2603;DHT22;1311;47.966;7.958;2022-07-21T01:25:30;21.00;99.90
2603;DHT22;1311;47.966;7.958;2022-07-21T01:27:57;21.00;99.90
2603;DHT22;1311;47.966;7.958;2022-07-21T01:30:24;21.10;99.90
2603;DHT22;1311;47.966;7.958;2022-07-21T01:32:51;21.00;99.90
2603;DHT22;1311;47.966;7.958;2022-07-21T01:35:17;20.70;99.90
2603;DHT22;1311;47.966;7.958;2022-07-21T01:37:45;20.70;99.90
2603;DHT22;1311;47.966;7.958;2022-07-21T01:40:15;20.70;99.90
2603;DHT22;1311;47.966;7.958;2022-07-21T01:45:28;20.80;99.90
2603;DHT22;1311;47.966;7.958;2022-07-21T01:47:55;20.80;99.90
2603;DHT22;1311;47.966;7.958;2022-07-21T01:50:23;20.90;99.90
2603;DHT22;1311;47.966;7.958;2022-07-21T01:52:52;20.70;99.90
2603;DHT22;1311;47.966;7.958;2022-07-21T01:55:21;20.90;99.90
2603;DHT22;1311;47.966;7.958;2022-07-21T01:57:48;20.70;99.90
2603;DHT22;1311;47.966;7.958;2022-07-21T02:00:15;20.70;99.90
2603;DHT22;1311;47.966;7.958;2022-07-21T02:05:09;20.80;99.90
2603;DHT22;1311;47.966;7.958;2022-07-21T02:07:36;20.60;99.90
2603;DHT22;1311;47.966;7.958;2022-07-21T02:10:03;20.60;99.90
2603;DHT22;1311;47.966;7.958;2022-07-21T02:12:31;20.60;99.90
2603;DHT22;1311;47.966;7.958;2022-07-21T02:14:58;20.50;99.90
2603;DHT22;1311;47.966;7.958;2022-07-21T02:17:25;20.40;99.90
2603;DHT22;1311;47.966;7.958;2022-07-21T02:19:52;20.40;99.90
2603;DHT22;1311;47.966;7.958;2022-07-21T02:22:18;20.40;99.90
2603;DHT22;1311;47.966;7.958;2022-07-21T02:24:45;20.30;99.90
2603;DHT22;1311;47.966;7.958;2022-07-21T02:27:12;20.40;99.90
2603;DHT22;1311;47.966;7.958;2022-07-21T02:29:40;20.40;99.90
2603;DHT22;1311;47.966;7.958;2022-07-21T02:34:34;20.40;99.90
2603;DHT22;1311;47.966;7.958;2022-07-21T02:37:00;20.30;99.90
2603;DHT22;1311;47.966;7.958;2022-07-21T02:39:28;20.40;99.90
2603;DHT22;1311;47.966;7.958;2022-07-21T02:41:55;20.50;99.90
2603;DHT22;1311;47.966;7.958;2022-07-21T02:44:22;20.60;99.90
2603;DHT22;1311;47.966;7.958;2022-07-21T02:46:50;20.60;99.90
2603;DHT22;1311;47.966;7.958;2022-07-21T02:49:16;20.60;99.90
2603;DHT22;1311;47.966;7.958;2022-07-21T02:51:43;20.60;99.90
2603;DHT22;1311;47.966;7.958;2022-07-21T02:54:10;20.50;99.90
2603;DHT22;1311;47.966;7.958;2022-07-21T02:56:37;20.60;99.90
2603;DHT22;1311;47.966;7.958;2022-07-21T02:59:04;20.60;99.90
2603;DHT22;1311;47.966;7.958;2022-07-21T03:01:31;20.50;99.90
2603;DHT22;1311;47.966;7.958;2022-07-21T03:03:59;20.60;99.90
2603;DHT22;1311;47.966;7.958;2022-07-21T03:06:26;20.60;99.90
2603;DHT22;1311;47.966;7.958;2022-07-21T03:08:52;20.50;99.90
2603;DHT22;1311;47.966;7.958;2022-07-21T03:11:19;20.70;99.90
2603;DHT22;1311;47.966;7.958;2022-07-21T03:13:46;20.60;99.90
2603;DHT22;1311;47.966;7.958;2022-07-21T03:16:13;20.60;99.90
2603;DHT22;1311;47.966;7.958;2022-07-21T03:18:40;20.50;99.90
2603;DHT22;1311;47.966;7.958;2022-07-21T03:21:08;20.50;99.90
2603;DHT22;1311;47.966;7.958;2022-07-21T03:23:35;20.70;99.90
2603;DHT22;1311;47.966;7.958;2022-07-21T03:26:02;20.60;99.90
2603;DHT22;1311;47.966;7.958;2022-07-21T03:28:29;20.60;99.90
2603;DHT22;1311;47.966;7.958;2022-07-21T03:30:56;20.60;99.90
2603;DHT22;1311;47.966;7.958;2022-07-21T03:33:22;20.50;99.90
2603;DHT22;1311;47.966;7.958;2022-07-21T03:35:49;20.50;99.90
2603;DHT22;1311;47.966;7.958;2022-07-21T03:38:17;20.30;99.90
2603;DHT22;1311;47.966;7.958;2022-07-21T03:40:44;20.40;99.90
2603;DHT22;1311;47.966;7.958;2022-07-21T03:43:11;20.20;99.90
2603;DHT22;1311;47.966;7.958;2022-07-21T03:45:38;20.10;99.90
2603;DHT22;1311;47.966;7.958;2022-07-21T03:48:06;20.10;99.90
2603;DHT22;1311;47.966;7.958;2022-07-21T03:50:34;20.10;99.90
2603;DHT22;1311;47.966;7.958;2022-07-21T03:53:01;20.10;99.90
2603;DHT22;1311;47.966;7.958;2022-07-21T03:55:30;20.00;99.90
2603;DHT22;1311;47.966;7.958;2022-07-21T03:57:59;20.00;99.90
2603;DHT22;1311;47.966;7.958;2022-07-21T04:00:33;19.90;99.90
2603;DHT22;1311;47.966;7.958;2022-07-21T04:03:00;20.00;99.90
2603;DHT22;1311;47.966;7.958;2022-07-21T04:05:28;20.00;99.90
2603;DHT22;1311;47.966;7.958;2022-07-21T04:07:56;20.10;99.90
2603;DHT22;1311;47.966;7.958;2022-07-21T04:10:24;20.00;99.90
2603;DHT22;1311;47.966;7.958;2022-07-21T04:12:54;20.20;99.90
2603;DHT22;1311;47.966;7.958;2022-07-21T04:15:21;20.20;99.90
2603;DHT22;1311;47.966;7.958;2022-07-21T04:17:47;19.90;99.90
2603;DHT22;1311;47.966;7.958;2022-07-21T04:20:15;20.10;99.90
2603;DHT22;1311;47.966;7.958;2022-07-21T04:22:42;19.90;99.90
2603;DHT22;1311;47.966;7.958;2022-07-21T04:25:09;20.00;99.90
2603;DHT22;1311;47.966;7.958;2022-07-21T04:27:37;19.80;99.90
2603;DHT22;1311;47.966;7.958;2022-07-21T04:30:08;20.00;99.90
2603;DHT22;1311;47.966;7.958;2022-07-21T04:32:35;19.90;99.90
2603;DHT22;1311;47.966;7.958;2022-07-21T04:35:03;19.70;99.90
2603;DHT22;1311;47.966;7.958;2022-07-21T04:37:30;19.80;99.90
2603;DHT22;1311;47.966;7.958;2022-07-21T04:39:56;19.90;99.90
2603;DHT22;1311;47.966;7.958;2022-07-21T04:44:50;20.00;99.90
2603;DHT22;1311;47.966;7.958;2022-07-21T04:47:18;20.00;99.90
2603;DHT22;1311;47.966;7.958;2022-07-21T04:52:12;20.90;99.90
2603;DHT22;1311;47.966;7.958;2022-07-21T04:54:39;21.30;99.90
2603;DHT22;1311;47.966;7.958;2022-07-21T04:57:06;21.80;99.90
2603;DHT22;1311;47.966;7.958;2022-07-21T04:59:34;22.20;99.90
2603;DHT22;1311;47.966;7.958;2022-07-21T05:02:01;22.70;99.90
2603;DHT22;1311;47.966;7.958;2022-07-21T05:04:30;22.90;99.90
2603;DHT22;1311;47.966;7.958;2022-07-21T05:06:57;23.50;99.90
2603;DHT22;1311;47.966;7.958;2022-07-21T05:09:24;23.50;99.90
2603;DHT22;1311;47.966;7.958;2022-07-21T05:11:50;24.10;99.90
2603;DHT22;1311;47.966;7.958;2022-07-21T05:14:17;24.40;99.90
2603;DHT22;1311;47.966;7.958;2022-07-21T05:16:44;24.90;99.90
2603;DHT22;1311;47.966;7.958;2022-07-21T05:19:11;25.20;99.90
2603;DHT22;1311;47.966;7.958;2022-07-21T05:21:39;25.80;99.90
2603;DHT22;1311;47.966;7.958;2022-07-21T05:24:06;26.30;99.90
2603;DHT22;1311;47.966;7.958;2022-07-21T05:26:34;26.50;99.90
2603;DHT22;1311;47.966;7.958;2022-07-21T05:29:01;26.70;99.90
2603;DHT22;1311;47.966;7.958;2022-07-21T05:31:28;27.00;99.90
2603;DHT22;1311;47.966;7.958;2022-07-21T05:33:55;27.30;99.90
2603;DHT22;1311;47.966;7.958;2022-07-21T05:36:21;27.50;99.90
2603;DHT22;1311;47.966;7.958;2022-07-21T05:38:49;27.60;99.90
2603;DHT22;1311;47.966;7.958;2022-07-21T05:41:16;27.90;99.90
2603;DHT22;1311;47.966;7.958;2022-07-21T05:43:43;28.30;99.90
2603;DHT22;1311;47.966;7.958;2022-07-21T05:46:10;28.40;99.90
2603;DHT22;1311;47.966;7.958;2022-07-21T05:48:37;28.40;99.90
2603;DHT22;1311;47.966;7.958;2022-07-21T05:51:03;28.80;99.90
2603;DHT22;1311;47.966;7.958;2022-07-21T05:53:30;29.00;99.90
2603;DHT22;1311;47.966;7.958;2022-07-21T05:55:58;28.50;99.90
2603;DHT22;1311;47.966;7.958;2022-07-21T05:58:25;28.40;99.90
2603;DHT22;1311;47.966;7.958;2022-07-21T06:00:52;28.70;99.90
2603;DHT22;1311;47.966;7.958;2022-07-21T06:03:34;28.50;99.90
2603;DHT22;1311;47.966;7.958;2022-07-21T06:06:01;28.70;99.90
2603;DHT22;1311;47.966;7.958;2022-07-21T06:08:28;28.80;99.90
2603;DHT22;1311;47.966;7.958;2022-07-21T06:10:55;29.20;99.90
2603;DHT22;1311;47.966;7.958;2022-07-21T06:13:24;29.40;99.90
2603;DHT22;1311;47.966;7.958;2022-07-21T06:15:50;29.00;99.90
2603;DHT22;1311;47.966;7.958;2022-07-21T06:18:17;28.60;99.90
2603;DHT22;1311;47.966;7.958;2022-07-21T06:20:44;27.60;99.90
2603;DHT22;1311;47.966;7.958;2022-07-21T06:23:11;27.50;99.90
2603;DHT22;1311;47.966;7.958;2022-07-21T06:25:38;27.50;99.90
2603;DHT22;1311;47.966;7.958;2022-07-21T06:28:05;27.60;99.90
2603;DHT22;1311;47.966;7.958;2022-07-21T06:30:33;27.40;99.90
2603;DHT22;1311;47.966;7.958;2022-07-21T06:33:00;27.20;99.90
2603;DHT22;1311;47.966;7.958;2022-07-21T06:35:27;27.00;99.90
2603;DHT22;1311;47.966;7.958;2022-07-21T06:40:21;26.40;99.90
2603;DHT22;1311;47.966;7.958;2022-07-21T06:42:48;26.30;99.90
2603;DHT22;1311;47.966;7.958;2022-07-21T06:45:15;26.20;99.90
2603;DHT22;1311;47.966;7.958;2022-07-21T06:47:43;25.80;99.90
2603;DHT22;1311;47.966;7.958;2022-07-21T06:50:10;25.50;99.90
2603;DHT22;1311;47.966;7.958;2022-07-21T06:52:37;25.30;99.90
2603;DHT22;1311;47.966;7.958;2022-07-21T06:55:06;25.20;99.90
2603;DHT22;1311;47.966;7.958;2022-07-21T06:57:34;25.20;99.90
2603;DHT22;1311;47.966;7.958;2022-07-21T07:00:05;24.90;99.90
2603;DHT22;1311;47.966;7.958;2022-07-21T07:02:32;24.70;99.90
2603;DHT22;1311;47.966;7.958;2022-07-21T07:05:00;25.00;99.90
2603;DHT22;1311;47.966;7.958;2022-07-21T07:07:31;25.20;99.90
2603;DHT22;1311;47.966;7.958;2022-07-21T07:09:58;25.30;99.90
2603;DHT22;1311;47.966;7.958;2022-07-21T07:12:25;25.40;99.90
2603;DHT22;1311;47.966;7.958;2022-07-21T07:14:52;24.90;99.90
2603;DHT22;1311;47.966;7.958;2022-07-21T07:17:19;24.90;99.90
2603;DHT22;1311;47.966;7.958;2022-07-21T07:19:46;24.80;99.90
2603;DHT22;1311;47.966;7.958;2022-07-21T07:22:15;24.70;99.90
2603;DHT22;1311;47.966;7.958;2022-07-21T07:24:42;24.70;99.90
2603;DHT22;1311;47.966;7.958;2022-07-21T07:29:36;24.50;99.90
2603;DHT22;1311;47.966;7.958;2022-07-21T07:32:02;24.20;99.90
2603;DHT22;1311;47.966;7.958;2022-07-21T07:34:29;24.10;99.90
2603;DHT22;1311;47.966;7.958;2022-07-21T07:36:56;24.10;99.90
2603;DHT22;1311;47.966;7.958;2022-07-21T07:39:25;24.20;99.90
2603;DHT22;1311;47.966;7.958;2022-07-21T07:41:52;24.10;99.90
2603;DHT22;1311;47.966;7.958;2022-07-21T07:44:20;24.20;99.90
2603;DHT22;1311;47.966;7.958;2022-07-21T07:46:47;24.10;99.90
2603;DHT22;1311;47.966;7.958;2022-07-21T07:49:14;24.20;99.90
2603;DHT22;1311;47.966;7.958;2022-07-21T07:51:41;24.20;99.90
2603;DHT22;1311;47.966;7.958;2022-07-21T07:54:08;24.10;99.90
2603;DHT22;1311;47.966;7.958;2022-07-21T07:56:36;24.00;99.90
2603;DHT22;1311;47.966;7.958;2022-07-21T07:59:02;24.00;99.90
2603;DHT22;1311;47.966;7.958;2022-07-21T08:01:29;24.20;99.90
2603;DHT22;1311;47.966;7.958;2022-07-21T08:03:56;24.40;99.90
2603;DHT22;1311;47.966;7.958;2022-07-21T08:06:23;24.50;99.90
2603;DHT22;1311;47.966;7.958;2022-07-21T08:08:50;24.70;99.90
2603;DHT22;1311;47.966;7.958;2022-07-21T08:11:17;24.90;99.90
2603;DHT22;1311;47.966;7.958;2022-07-21T08:13:45;24.90;99.90
2603;DHT22;1311;47.966;7.958;2022-07-21T08:16:12;24.90;99.90
2603;DHT22;1311;47.966;7.958;2022-07-21T08:18:40;24.70;99.90
2603;DHT22;1311;47.966;7.958;2022-07-21T08:21:07;24.60;99.90
2603;DHT22;1311;47.966;7.958;2022-07-21T08:23:34;24.50;99.90
2603;DHT22;1311;47.966;7.958;2022-07-21T08:26:01;24.40;99.90
2603;DHT22;1311;47.966;7.958;2022-07-21T08:28:28;24.50;99.90
2603;DHT22;1311;47.966;7.958;2022-07-21T08:30:57;24.50;99.90
2603;DHT22;1311;47.966;7.958;2022-07-21T08:35:50;24.50;99.90
2603;DHT22;1311;47.966;7.958;2022-07-21T08:38:18;24.60;99.90
2603;DHT22;1311;47.966;7.958;2022-07-21T08:40:46;24.80;99.90
2603;DHT22;1311;47.966;7.958;2022-07-21T08:43:13;24.80;99.90
2603;DHT22;1311;47.966;7.958;2022-07-21T08:45:41;25.20;99.90
2603;DHT22;1311;47.966;7.958;2022-07-21T08:48:09;25.20;99.90
2603;DHT22;1311;47.966;7.958;2022-07-21T08:50:38;25.20;99.90
2603;DHT22;1311;47.966;7.958;2022-07-21T08:53:05;25.20;99.90
2603;DHT22;1311;47.966;7.958;2022-07-21T08:55:34;25.40;99.90
2603;DHT22;1311;47.966;7.958;2022-07-21T08:58:02;25.40;99.90
2603;DHT22;1311;47.966;7.958;2022-07-21T09:00:29;25.40;99.90
2603;DHT22;1311;47.966;7.958;2022-07-21T09:03:12;25.50;99.90
2603;DHT22;1311;47.966;7.958;2022-07-21T09:05:40;25.60;99.90
2603;DHT22;1311;47.966;7.958;2022-07-21T09:08:06;25.70;99.90
2603;DHT22;1311;47.966;7.958;2022-07-21T09:10:34;26.10;99.90
2603;DHT22;1311;47.966;7.958;2022-07-21T09:13:04;26.30;99.90
2603;DHT22;1311;47.966;7.958;2022-07-21T09:15:31;26.40;99.90
2603;DHT22;1311;47.966;7.958;2022-07-21T09:18:11;26.40;99.90
2603;DHT22;1311;47.966;7.958;2022-07-21T09:20:46;26.40;99.90
2603;DHT22;1311;47.966;7.958;2022-07-21T09:23:15;26.40;99.90
2603;DHT22;1311;47.966;7.958;2022-07-21T09:25:43;26.40;99.90
2603;DHT22;1311;47.966;7.958;2022-07-21T09:28:15;26.60;99.90
2603;DHT22;1311;47.966;7.958;2022-07-21T09:30:54;26.90;99.90
2603;DHT22;1311;47.966;7.958;2022-07-21T09:33:25;27.00;99.90
2603;DHT22;1311;47.966;7.958;2022-07-21T09:36:01;26.60;99.90
2603;DHT22;1311;47.966;7.958;2022-07-21T09:38:31;26.50;99.90
2603;DHT22;1311;47.966;7.958;2022-07-21T09:41:09;26.30;99.90
2603;DHT22;1311;47.966;7.958;2022-07-21T09:43:39;26.10;99.90
2603;DHT22;1311;47.966;7.958;2022-07-21T09:46:10;26.10;99.90
2603;DHT22;1311;47.966;7.958;2022-07-21T09:48:40;26.30;99.90
2603;DHT22;1311;47.966;7.958;2022-07-21T09:51:28;26.30;99.90
2603;DHT22;1311;47.966;7.958;2022-07-21T09:53:58;26.60;99.90
2603;DHT22;1311;47.966;7.958;2022-07-21T09:56:27;26.70;99.90
2603;DHT22;1311;47.966;7.958;2022-07-21T09:58:56;26.90;99.90
2603;DHT22;1311;47.966;7.958;2022-07-21T10:01:24;27.00;99.90
2603;DHT22;1311;47.966;7.958;2022-07-21T10:03:53;26.90;99.90
2603;DHT22;1311;47.966;7.958;2022-07-21T10:06:23;26.60;99.90
2603;DHT22;1311;47.966;7.958;2022-07-21T10:08:50;26.70;99.90
2603;DHT22;1311;47.966;7.958;2022-07-21T10:11:17;26.70;99.90
2603;DHT22;1311;47.966;7.958;2022-07-21T10:13:44;26.80;99.90
2603;DHT22;1311;47.966;7.958;2022-07-21T10:16:12;27.00;99.90
2603;DHT22;1311;47.966;7.958;2022-07-21T10:18:46;27.20;99.90
2603;DHT22;1311;47.966;7.958;2022-07-21T10:21:25;27.10;99.90
2603;DHT22;1311;47.966;7.958;2022-07-21T10:23:54;27.00;99.90
2603;DHT22;1311;47.966;7.958;2022-07-21T10:26:21;27.10;99.90
2603;DHT22;1311;47.966;7.958;2022-07-21T10:28:48;27.20;99.90
2603;DHT22;1311;47.966;7.958;2022-07-21T10:31:18;27.30;99.90
2603;DHT22;1311;47.966;7.958;2022-07-21T10:33:53;27.00;99.90
2603;DHT22;1311;47.966;7.958;2022-07-21T10:36:42;26.80;99.90
2603;DHT22;1311;47.966;7.958;2022-07-21T10:39:17;27.00;99.90
2603;DHT22;1311;47.966;7.958;2022-07-21T10:41:46;27.00;99.90
2603;DHT22;1311;47.966;7.958;2022-07-21T10:44:42;27.00;99.90
2603;DHT22;1311;47.966;7.958;2022-07-21T10:47:11;27.20;99.90
2603;DHT22;1311;47.966;7.958;2022-07-21T10:49:46;27.40;99.90
2603;DHT22;1311;47.966;7.958;2022-07-21T10:55:20;27.70;99.90
2603;DHT22;1311;47.966;7.958;2022-07-21T10:58:12;27.60;99.90
2603;DHT22;1311;47.966;7.958;2022-07-21T11:00:47;27.60;99.90
2603;DHT22;1311;47.966;7.958;2022-07-21T11:03:24;27.70;99.90
2603;DHT22;1311;47.966;7.958;2022-07-21T11:06:20;27.50;99.90
2603;DHT22;1311;47.966;7.958;2022-07-21T11:08:50;27.60;99.90
2603;DHT22;1311;47.966;7.958;2022-07-21T11:11:19;27.60;99.90
2603;DHT22;1311;47.966;7.958;2022-07-21T11:14:05;27.50;99.90
2603;DHT22;1311;47.966;7.958;2022-07-21T11:16:57;27.60;99.90
2603;DHT22;1311;47.966;7.958;2022-07-21T11:19:28;27.60;99.90
2603;DHT22;1311;47.966;7.958;2022-07-21T11:21:56;27.70;99.90
2603;DHT22;1311;47.966;7.958;2022-07-21T11:24:25;27.70;99.90
2603;DHT22;1311;47.966;7.958;2022-07-21T11:26:57;27.90;99.90
2603;DHT22;1311;47.966;7.958;2022-07-21T11:29:25;28.10;99.90
2603;DHT22;1311;47.966;7.958;2022-07-21T11:31:52;28.30;99.90
2603;DHT22;1311;47.966;7.958;2022-07-21T11:34:19;28.40;99.90
2603;DHT22;1311;47.966;7.958;2022-07-21T11:36:46;28.20;99.90
2603;DHT22;1311;47.966;7.958;2022-07-21T11:39:14;28.00;99.90
2603;DHT22;1311;47.966;7.958;2022-07-21T11:41:44;28.00;99.90
2603;DHT22;1311;47.966;7.958;2022-07-21T11:44:22;27.80;99.90
2603;DHT22;1311;47.966;7.958;2022-07-21T11:46:51;28.00;99.90
2603;DHT22;1311;47.966;7.958;2022-07-21T11:51:47;28.00;99.90
2603;DHT22;1311;47.966;7.958;2022-07-21T11:54:32;28.20;99.90
2603;DHT22;1311;47.966;7.958;2022-07-21T11:57:00;28.20;99.90
2603;DHT22;1311;47.966;7.958;2022-07-21T11:59:29;28.10;99.90
2603;DHT22;1311;47.966;7.958;2022-07-21T12:02:02;28.40;99.90
2603;DHT22;1311;47.966;7.958;2022-07-21T12:04:42;28.40;99.90
2603;DHT22;1311;47.966;7.958;2022-07-21T12:07:15;28.50;99.80
2603;DHT22;1311;47.966;7.958;2022-07-21T12:09:44;28.30;98.50
2603;DHT22;1311;47.966;7.958;2022-07-21T12:12:11;28.60;99.60
2603;DHT22;1311;47.966;7.958;2022-07-21T12:14:42;28.50;98.40
2603;DHT22;1311;47.966;7.958;2022-07-21T12:17:09;28.40;98.70
2603;DHT22;1311;47.966;7.958;2022-07-21T12:19:37;28.50;99.80
2603;DHT22;1311;47.966;7.958;2022-07-21T12:22:04;28.30;98.10
2603;DHT22;1311;47.966;7.958;2022-07-21T12:24:51;28.20;97.60
2603;DHT22;1311;47.966;7.958;2022-07-21T12:27:18;28.30;98.10
2603;DHT22;1311;47.966;7.958;2022-07-21T12:29:47;28.40;97.30
2603;DHT22;1311;47.966;7.958;2022-07-21T12:32:14;28.30;97.70
2603;DHT22;1311;47.966;7.958;2022-07-21T12:35:01;28.20;96.80
2603;DHT22;1311;47.966;7.958;2022-07-21T12:40:35;28.20;97.10
2603;DHT22;1311;47.966;7.958;2022-07-21T12:43:04;28.00;96.70
2603;DHT22;1311;47.966;7.958;2022-07-21T12:45:44;28.00;95.70
2603;DHT22;1311;47.966;7.958;2022-07-21T12:48:14;28.00;96.30
2603;DHT22;1311;47.966;7.958;2022-07-21T12:50:41;28.00;95.90
2603;DHT22;1311;47.966;7.958;2022-07-21T12:53:08;28.00;96.10
2603;DHT22;1311;47.966;7.958;2022-07-21T12:55:35;28.10;96.60
2603;DHT22;1311;47.966;7.958;2022-07-21T12:58:02;28.50;96.00
2603;DHT22;1311;47.966;7.958;2022-07-21T13:00:29;28.60;96.30
2603;DHT22;1311;47.966;7.958;2022-07-21T13:02:57;28.40;94.80
2603;DHT22;1311;47.966;7.958;2022-07-21T13:05:25;28.50;94.80
2603;DHT22;1311;47.966;7.958;2022-07-21T13:07:53;28.70;94.90
2603;DHT22;1311;47.966;7.958;2022-07-21T13:10:20;28.90;94.30
2603;DHT22;1311;47.966;7.958;2022-07-21T13:12:46;28.90;94.20
2603;DHT22;1311;47.966;7.958;2022-07-21T13:15:13;28.60;93.50
2603;DHT22;1311;47.966;7.958;2022-07-21T13:17:40;28.60;94.10
2603;DHT22;1311;47.966;7.958;2022-07-21T13:20:09;28.80;94.20
2603;DHT22;1311;47.966;7.958;2022-07-21T13:22:36;28.90;93.90
2603;DHT22;1311;47.966;7.958;2022-07-21T13:25:04;28.90;92.60
2603;DHT22;1311;47.966;7.958;2022-07-21T13:27:32;29.00;92.40
2603;DHT22;1311;47.966;7.958;2022-07-21T13:29:59;28.90;91.60
2603;DHT22;1311;47.966;7.958;2022-07-21T13:32:26;29.10;91.10
2603;DHT22;1311;47.966;7.958;2022-07-21T13:34:54;28.80;90.10
2603;DHT22;1311;47.966;7.958;2022-07-21T13:37:22;29.00;89.80
2603;DHT22;1311;47.966;7.958;2022-07-21T13:39:49;28.80;90.80
2603;DHT22;1311;47.966;7.958;2022-07-21T13:42:16;28.80;91.50
2603;DHT22;1311;47.966;7.958;2022-07-21T13:47:09;29.00;90.80
2603;DHT22;1311;47.966;7.958;2022-07-21T13:49:36;29.30;90.80
2603;DHT22;1311;47.966;7.958;2022-07-21T13:52:04;29.50;90.60
2603;DHT22;1311;47.966;7.958;2022-07-21T13:54:32;29.40;90.10
2603;DHT22;1311;47.966;7.958;2022-07-21T13:56:58;29.50;90.00
2603;DHT22;1311;47.966;7.958;2022-07-21T13:59:26;29.40;88.90
2603;DHT22;1311;47.966;7.958;2022-07-21T14:01:53;29.40;89.40
2603;DHT22;1311;47.966;7.958;2022-07-21T14:04:21;29.40;87.30
2603;DHT22;1311;47.966;7.958;2022-07-21T14:06:48;29.40;88.40
2603;DHT22;1311;47.966;7.958;2022-07-21T14:09:15;29.50;89.50
2603;DHT22;1311;47.966;7.958;2022-07-21T14:11:44;29.40;87.50
2603;DHT22;1311;47.966;7.958;2022-07-21T14:14:11;29.50;88.30
2603;DHT22;1311;47.966;7.958;2022-07-21T14:16:42;29.50;85.60
2603;DHT22;1311;47.966;7.958;2022-07-21T14:19:09;29.70;84.10
2603;DHT22;1311;47.966;7.958;2022-07-21T14:21:36;29.70;84.90
2603;DHT22;1311;47.966;7.958;2022-07-21T14:24:03;29.50;85.10
2603;DHT22;1311;47.966;7.958;2022-07-21T14:26:49;29.50;84.60
2603;DHT22;1311;47.966;7.958;2022-07-21T14:29:15;29.70;84.60
2603;DHT22;1311;47.966;7.958;2022-07-21T14:31:42;29.80;85.60
2603;DHT22;1311;47.966;7.958;2022-07-21T14:34:09;29.80;85.20
2603;DHT22;1311;47.966;7.958;2022-07-21T14:39:03;30.10;85.00
2603;DHT22;1311;47.966;7.958;2022-07-21T14:41:30;29.70;87.10
2603;DHT22;1311;47.966;7.958;2022-07-21T14:43:58;29.70;86.90
2603;DHT22;1311;47.966;7.958;2022-07-21T14:46:25;29.80;84.60
2603;DHT22;1311;47.966;7.958;2022-07-21T14:53:46;29.70;84.40
2603;DHT22;1311;47.966;7.958;2022-07-21T14:56:12;29.80;84.80
2603;DHT22;1311;47.966;7.958;2022-07-21T14:58:39;29.90;84.10
2603;DHT22;1311;47.966;7.958;2022-07-21T15:01:07;30.10;83.40
2603;DHT22;1311;47.966;7.958;2022-07-21T15:06:02;30.10;81.10
2603;DHT22;1311;47.966;7.958;2022-07-21T15:13:24;30.20;80.70
2603;DHT22;1311;47.966;7.958;2022-07-21T15:15:53;30.20;80.40
2603;DHT22;1311;47.966;7.958;2022-07-21T15:18:21;30.10;81.30
2603;DHT22;1311;47.966;7.958;2022-07-21T15:20:48;30.10;81.20
2603;DHT22;1311;47.966;7.958;2022-07-21T15:25:43;30.20;79.70
2603;DHT22;1311;47.966;7.958;2022-07-21T15:30:37;30.60;81.90
2603;DHT22;1311;47.966;7.958;2022-07-21T15:35:32;30.20;83.50
2603;DHT22;1311;47.966;7.958;2022-07-21T15:40:26;29.90;83.80
2603;DHT22;1311;47.966;7.958;2022-07-21T15:42:53;29.80;83.20
2603;DHT22;1311;47.966;7.958;2022-07-21T15:47:47;29.50;83.70
2603;DHT22;1311;47.966;7.958;2022-07-21T15:50:13;29.40;84.10
2603;DHT22;1311;47.966;7.958;2022-07-21T15:52:42;29.40;85.10
2603;DHT22;1311;47.966;7.958;2022-07-21T15:55:10;29.30;84.50
2603;DHT22;1311;47.966;7.958;2022-07-21T15:57:37;29.30;84.90
2603;DHT22;1311;47.966;7.958;2022-07-21T16:00:06;29.40;85.60
2603;DHT22;1311;47.966;7.958;2022-07-21T16:05:02;29.30;81.60
2603;DHT22;1311;47.966;7.958;2022-07-21T16:09:58;29.10;82.70
2603;DHT22;1311;47.966;7.958;2022-07-21T16:12:24;29.20;83.30
2603;DHT22;1311;47.966;7.958;2022-07-21T16:17:18;29.30;83.70
2603;DHT22;1311;47.966;7.958;2022-07-21T16:19:45;29.40;84.00
2603;DHT22;1311;47.966;7.958;2022-07-21T16:22:12;29.40;85.00
2603;DHT22;1311;47.966;7.958;2022-07-21T16:24:39;29.30;85.50
2603;DHT22;1311;47.966;7.958;2022-07-21T16:29:35;29.10;85.60
2603;DHT22;1311;47.966;7.958;2022-07-21T16:32:03;29.10;85.50
2603;DHT22;1311;47.966;7.958;2022-07-21T16:36:59;29.10;84.60
2603;DHT22;1311;47.966;7.958;2022-07-21T16:39:27;29.00;83.90
2603;DHT22;1311;47.966;7.958;2022-07-21T16:41:54;29.10;85.00
2603;DHT22;1311;47.966;7.958;2022-07-21T16:44:22;28.90;85.30
2603;DHT22;1311;47.966;7.958;2022-07-21T16:51:44;28.70;86.80
2603;DHT22;1311;47.966;7.958;2022-07-21T16:54:11;28.50;87.40
2603;DHT22;1311;47.966;7.958;2022-07-21T16:56:38;28.30;87.30
2603;DHT22;1311;47.966;7.958;2022-07-21T16:59:05;28.30;87.50
2603;DHT22;1311;47.966;7.958;2022-07-21T17:01:33;28.20;86.90
2603;DHT22;1311;47.966;7.958;2022-07-21T17:04:00;28.10;87.40
2603;DHT22;1311;47.966;7.958;2022-07-21T17:13:50;27.90;90.00
2603;DHT22;1311;47.966;7.958;2022-07-21T17:16:17;27.90;89.60
2603;DHT22;1311;47.966;7.958;2022-07-21T17:18:46;27.80;89.70
2603;DHT22;1311;47.966;7.958;2022-07-21T17:21:13;27.70;90.00
2603;DHT22;1311;47.966;7.958;2022-07-21T17:23:43;27.70;90.10
2603;DHT22;1311;47.966;7.958;2022-07-21T17:35:59;27.50;90.80
2603;DHT22;1311;47.966;7.958;2022-07-21T17:40:54;27.40;91.00
2603;DHT22;1311;47.966;7.958;2022-07-21T17:50:45;27.40;91.20
2603;DHT22;1311;47.966;7.958;2022-07-21T17:55:41;27.30;91.70